Time;durP1;ratioP1;P1;durP2;ratioP2;P2;SDS_P1;SDS_P2;PMS_P1;PMS_P2;Temp;Humidity;BMP_temperature;BMP_pressure;BME280_temperature;BME280_humidity;BME280_pressure;Samples;Min_cycle;Max_cycle;Signal;HPM_P1;HPM_P2
2022/07/05 00:01:55;;;;;;;1.58;0.95;;;17.10;66.60;17.20;100905.00;;;;4886401;28;108083;-63
2022/07/05 00:04:21;;;;;;;1.08;0.98;;;17.10;66.80;17.20;100905.00;;;;4879972;28;121568;-63
2022/07/05 00:09:31;;;;;;;2.25;0.70;;;17.10;67.10;17.20;100893.00;;;;4895295;28;92888;-63
2022/07/05 00:11:56;;;;;;;0.60;0.60;;;17.10;67.30;17.20;100896.00;;;;4895854;28;107950;-64
2022/07/05 00:14:22;;;;;;;3.38;1.10;;;17.00;67.30;17.20;100894.00;;;;4881097;28;92581;-63
2022/07/05 00:16:49;;;;;;;0.88;0.73;;;17.10;67.50;17.20;100903.00;;;;4877577;28;93022;-63
2022/07/05 00:19:15;;;;;;;1.35;1.00;;;17.00;67.70;17.20;100895.00;;;;4877765;28;92850;-63
2022/07/05 00:21:41;;;;;;;0.80;0.80;;;17.00;67.80;17.10;100891.00;;;;4877032;28;93688;-63
2022/07/05 00:24:07;;;;;;;1.08;0.82;;;17.00;68.10;17.10;100898.00;;;;4862429;28;121655;-63
2022/07/05 00:26:33;;;;;;;0.88;0.88;;;17.00;68.40;17.10;100895.00;;;;4877173;28;109675;-63
2022/07/05 00:28:58;;;;;;;0.65;0.65;;;17.00;68.70;17.10;100891.00;;;;4858816;28;110379;-63
2022/07/05 00:31:24;;;;;;;3.72;1.23;;;17.00;69.00;17.10;100896.00;;;;4884400;28;108899;-63
2022/07/05 00:33:49;;;;;;;0.88;0.80;;;17.10;69.30;17.00;100895.00;;;;4889858;28;123977;-63
2022/07/05 00:36:15;;;;;;;1.42;0.90;;;17.00;69.50;17.00;100902.00;;;;4895525;28;120321;-62
2022/07/05 00:38:41;;;;;;;1.00;0.85;;;16.90;69.90;17.00;100897.00;;;;4878350;28;110147;-63
2022/07/05 00:41:06;;;;;;;1.27;1.00;;;16.90;70.50;16.90;100893.00;;;;4884293;28;108403;-63
2022/07/05 00:43:33;;;;;;;1.20;1.10;;;16.80;70.80;16.90;100896.00;;;;4886978;28;123526;-63
2022/07/05 00:45:58;;;;;;;0.75;0.70;;;16.80;71.10;16.90;100891.00;;;;4875678;28;106663;-63
2022/07/05 00:48:24;;;;;;;2.60;0.70;;;16.80;71.40;16.90;100894.00;;;;4876930;28;101180;-63
2022/07/05 00:50:51;;;;;;;0.98;0.88;;;16.80;71.60;16.80;100886.00;;;;4876551;28;95261;-64
2022/07/05 00:53:17;;;;;;;0.85;0.50;;;16.70;71.90;16.80;100895.00;;;;4881026;28;123696;-63
2022/07/05 00:55:46;;;;;;;1.38;1.27;;;16.70;72.20;16.80;100893.00;;;;4894826;28;94719;-63
2022/07/05 00:58:12;;;;;;;1.13;1.00;;;16.70;72.80;16.70;100888.00;;;;4895564;28;92955;-61
2022/07/05 01:00:38;;;;;;;1.45;1.02;;;16.60;73.00;16.70;100884.00;;;;4876075;28;109185;-64
2022/07/05 01:03:04;;;;;;;1.15;1.08;;;16.60;73.70;16.60;100886.00;;;;4886063;28;122181;-64
2022/07/05 01:05:32;;;;;;;0.60;0.60;;;16.60;74.10;16.60;100886.00;;;;4875894;28;121159;-63
2022/07/05 01:08:00;;;;;;;0.65;0.65;;;16.50;74.60;16.50;100888.00;;;;4860415;28;93399;-63
2022/07/05 01:10:27;;;;;;;1.40;0.98;;;16.40;75.00;16.50;100877.00;;;;4875572;28;109897;-64
2022/07/05 01:12:53;;;;;;;1.70;0.82;;;16.40;75.50;16.40;100878.00;;;;4891712;28;121308;-63
2022/07/05 01:15:21;;;;;;;0.98;0.93;;;16.30;75.80;16.40;100884.00;;;;4876506;28;122238;-63
2022/07/05 01:17:47;;;;;;;1.33;1.10;;;16.30;76.20;16.30;100887.00;;;;4881091;28;92784;-63
2022/07/05 01:20:14;;;;;;;1.13;0.98;;;16.30;76.90;16.30;100874.00;;;;4870780;28;92586;-63
2022/07/05 01:22:56;;;;;;;1.50;1.30;;;16.20;77.40;16.20;100870.00;;;;4875718;28;123428;-63
2022/07/05 01:25:27;;;;;;;0.77;0.75;;;16.30;78.20;16.10;100872.00;;;;4876047;28;93434;-63
2022/07/05 01:27:54;;;;;;;1.50;1.33;;;16.10;78.60;16.00;100872.00;;;;4876808;28;97816;-63
2022/07/05 01:30:20;;;;;;;1.00;1.00;;;16.00;79.10;16.00;100869.00;;;;4893486;28;92816;-63
2022/07/05 01:32:46;;;;;;;1.13;1.02;;;15.90;79.70;16.00;100869.00;;;;4894070;28;121417;-64
2022/07/05 01:35:14;;;;;;;1.27;1.17;;;15.90;80.50;15.90;100860.00;;;;4894292;28;107563;-63
2022/07/05 01:37:40;;;;;;;1.08;0.98;;;15.80;81.10;15.90;100865.00;;;;4885353;28;92924;-63
2022/07/05 01:40:06;;;;;;;1.00;0.93;;;15.80;81.70;15.90;100853.00;;;;4891958;28;106541;-63
2022/07/05 01:42:32;;;;;;;2.00;0.93;;;15.80;82.20;15.80;100864.00;;;;4876911;28;94324;-63
2022/07/05 01:44:58;;;;;;;0.88;0.60;;;15.80;82.70;15.70;100860.00;;;;4857451;28;116920;-63
2022/07/05 01:47:24;;;;;;;1.80;1.65;;;15.70;83.10;15.70;100866.00;;;;4883320;28;110413;-63
2022/07/05 01:49:54;;;;;;;0.82;0.82;;;15.70;83.90;15.60;100863.00;;;;4893826;28;109771;-63
2022/07/05 01:52:22;;;;;;;1.27;0.88;;;15.60;84.50;15.50;100864.00;;;;4869210;28;109642;-63
2022/07/05 01:54:48;;;;;;;0.95;0.95;;;15.50;85.00;15.50;100861.00;;;;4875228;28;112946;-63
2022/07/05 01:57:14;;;;;;;0.90;0.90;;;15.50;85.50;15.40;100858.00;;;;4876088;28;92837;-63
2022/07/05 01:59:40;;;;;;;1.55;0.70;;;15.40;86.10;15.40;100859.00;;;;4872845;28;108326;-63
2022/07/05 02:02:08;;;;;;;1.35;1.25;;;15.40;86.60;15.30;100864.00;;;;4886622;28;122994;-63
2022/07/05 02:04:35;;;;;;;1.45;1.20;;;15.30;87.10;15.30;100866.00;;;;4892042;28;93268;-62
2022/07/05 02:07:06;;;;;;;1.77;1.20;;;15.30;87.70;15.20;100871.00;;;;4876790;28;92916;-63
2022/07/05 02:09:32;;;;;;;1.23;1.10;;;15.20;88.20;15.20;100879.00;;;;4875457;28;92479;-63
2022/07/05 02:11:58;;;;;;;1.30;1.20;;;15.20;88.80;15.20;100876.00;;;;4875591;28;93737;-63
2022/07/05 02:14:24;;;;;;;2.53;1.43;;;15.10;89.30;15.10;100872.00;;;;4876016;28;121840;-63
2022/07/05 02:16:49;;;;;;;1.30;0.93;;;15.10;89.70;15.10;100867.00;;;;4875615;28;109558;-63
2022/07/05 02:19:15;;;;;;;1.40;1.30;;;15.10;90.10;15.00;100871.00;;;;4875084;28;107841;-63
2022/07/05 02:21:41;;;;;;;1.20;0.70;;;14.90;90.30;15.00;100863.00;;;;4881867;28;123822;-63
2022/07/05 02:24:08;;;;;;;1.15;1.10;;;15.00;90.50;14.90;100866.00;;;;4882825;28;117509;-63
2022/07/05 02:26:34;;;;;;;1.60;1.50;;;14.90;90.80;14.80;100872.00;;;;4858130;28;92728;-63
2022/07/05 02:29:02;;;;;;;0.83;0.70;;;14.80;91.10;14.70;100875.00;;;;4875651;28;92732;-63
2022/07/05 02:31:28;;;;;;;1.13;0.97;;;14.70;91.50;14.70;100879.00;;;;4857440;28;107266;-63
2022/07/05 02:33:53;;;;;;;1.27;1.03;;;14.70;91.80;14.60;100877.00;;;;4880256;28;107117;-63
2022/07/05 02:36:19;;;;;;;1.63;1.17;;;14.60;92.10;14.50;100874.00;;;;4894354;28;109117;-63
2022/07/05 02:38:45;;;;;;;3.03;1.00;;;14.50;92.40;14.50;100883.00;;;;4894699;28;92916;-63
2022/07/05 02:41:12;;;;;;;1.90;1.47;;;14.50;92.70;14.50;100881.00;;;;4894171;28;92247;-63
2022/07/05 02:43:39;;;;;;;1.83;1.30;;;14.40;93.10;14.40;100879.00;;;;4892342;28;122176;-60
2022/07/05 02:46:06;;;;;;;1.40;1.27;;;14.40;93.40;14.40;100877.00;;;;4895006;28;92689;-63
2022/07/05 02:48:34;;;;;;;1.30;1.00;;;14.40;93.70;14.30;100880.00;;;;4876113;28;93916;-63
2022/07/05 02:51:00;;;;;;;2.10;1.27;;;14.30;93.80;14.30;100871.00;;;;4894288;28;93375;-63
2022/07/05 02:53:26;;;;;;;1.30;1.20;;;14.30;93.90;14.30;100876.00;;;;4893256;28;106928;-63
2022/07/05 02:55:52;;;;;;;1.50;1.40;;;14.30;94.00;14.30;100871.00;;;;4893399;28;109057;-63
2022/07/05 02:58:18;;;;;;;1.83;1.40;;;14.20;94.10;14.30;100877.00;;;;4893069;28;108189;-63
2022/07/05 03:00:45;;;;;;;1.53;1.43;;;14.20;94.20;14.20;100877.00;;;;4893069;28;104143;-63
2022/07/05 03:03:11;;;;;;;0.90;0.60;;;14.20;94.30;14.20;100874.00;;;;4893692;28;92829;-63
2022/07/05 03:05:37;;;;;;;1.03;1.00;;;14.20;94.40;14.20;100870.00;;;;4893631;28;109428;-63
2022/07/05 03:08:03;;;;;;;1.30;1.20;;;14.10;94.60;14.10;100872.00;;;;4893472;28;109368;-63
2022/07/05 03:10:28;;;;;;;0.93;0.93;;;14.10;95.00;14.00;100867.00;;;;4893620;28;97728;-63
2022/07/05 03:12:54;;;;;;;2.07;1.23;;;14.00;95.40;13.90;100878.00;;;;4891883;28;113958;-63
2022/07/05 03:15:20;;;;;;;1.60;1.50;;;13.90;96.00;13.80;100875.00;;;;4893551;28;92990;-64
2022/07/05 03:17:45;;;;;;;1.10;1.00;;;13.80;96.30;13.80;100885.00;;;;4894038;28;92941;-63
2022/07/05 03:20:11;;;;;;;1.27;1.17;;;13.80;96.50;13.70;100886.00;;;;4892590;28;122795;-63
2022/07/05 03:22:37;;;;;;;1.60;1.50;;;13.70;96.80;13.70;100884.00;;;;4891988;28;122502;-64
2022/07/05 03:25:03;;;;;;;3.47;1.70;;;13.70;97.20;13.70;100894.00;;;;4892901;28;110315;-63
2022/07/05 03:27:29;;;;;;;1.07;1.07;;;13.60;97.30;13.60;100894.00;;;;4894057;28;93044;-63
2022/07/05 03:29:54;;;;;;;0.97;0.97;;;13.60;97.50;13.70;100883.00;;;;4892946;28;121012;-64
2022/07/05 03:32:20;;;;;;;1.30;1.20;;;13.60;97.60;13.70;100889.00;;;;4892291;28;123686;-63
2022/07/05 03:34:45;;;;;;;1.30;1.20;;;13.60;97.80;13.60;100902.00;;;;4892520;28;110350;-63
2022/07/05 03:37:11;;;;;;;1.93;1.57;;;13.60;97.90;13.60;100894.00;;;;4892414;28;107379;-63
2022/07/05 03:39:37;;;;;;;2.40;1.30;;;13.60;98.10;13.60;100899.00;;;;4896224;28;94098;-63
2022/07/05 03:42:03;;;;;;;1.90;1.43;;;13.60;98.40;13.60;100893.00;;;;4895825;28;122619;-63
2022/07/05 03:44:31;;;;;;;2.13;1.70;;;13.50;98.60;13.50;100907.00;;;;4896974;28;102773;-63
2022/07/05 03:46:57;;;;;;;2.50;1.80;;;13.50;99.30;13.50;100912.00;;;;4897281;28;92783;-63
2022/07/05 03:49:23;;;;;;;1.60;1.50;;;13.50;99.50;13.50;100908.00;;;;4895008;28;124018;-63
2022/07/05 03:51:48;;;;;;;3.23;1.50;;;13.40;99.60;13.50;100912.00;;;;4895907;28;123396;-63
2022/07/05 03:54:14;;;;;;;3.93;1.50;;;13.40;99.90;13.40;100906.00;;;;4896081;28;110521;-63
2022/07/05 03:56:40;;;;;;;3.27;1.63;;;13.40;99.90;13.40;100912.00;;;;4896389;28;92706;-63
2022/07/05 03:59:06;;;;;;;2.73;1.17;;;13.40;99.90;13.50;100914.00;;;;4896148;28;92786;-63
2022/07/05 04:01:32;;;;;;;1.60;1.47;;;13.40;99.90;13.50;100914.00;;;;4894535;28;122223;-63
2022/07/05 04:03:57;;;;;;;1.80;1.70;;;13.40;99.90;13.50;100917.00;;;;4895803;28;100342;-64
2022/07/05 04:06:23;;;;;;;1.97;1.30;;;13.40;99.90;13.50;100920.00;;;;4896101;28;108141;-64
2022/07/05 04:08:49;;;;;;;1.87;1.70;;;13.40;99.90;13.50;100922.00;;;;4884131;28;105694;-64
2022/07/05 04:11:15;;;;;;;1.67;1.53;;;13.40;99.90;13.50;100920.00;;;;4907285;28;120531;-63
2022/07/05 04:13:41;;;;;;;3.27;1.80;;;13.40;99.90;13.50;100932.00;;;;4896317;28;92809;-63
2022/07/05 04:16:08;;;;;;;1.50;1.40;;;13.40;99.90;13.50;100936.00;;;;4897343;28;92846;-63
2022/07/05 04:18:34;;;;;;;2.03;1.80;;;13.50;99.90;13.50;100925.00;;;;4896270;28;93060;-63
2022/07/05 04:21:00;;;;;;;1.83;1.30;;;13.50;99.90;13.50;100934.00;;;;4896071;28;101220;-64
2022/07/05 04:23:25;;;;;;;3.00;1.57;;;13.40;99.90;13.50;100932.00;;;;4896448;28;92733;-63
2022/07/05 04:25:51;;;;;;;1.80;1.63;;;13.40;99.90;13.50;100933.00;;;;4895410;28;107821;-64
2022/07/05 04:28:17;;;;;;;1.70;1.57;;;13.40;99.90;13.50;100939.00;;;;4895230;28;121800;-64
2022/07/05 04:30:42;;;;;;;1.53;1.43;;;13.40;99.90;13.50;100934.00;;;;4895820;28;116635;-63
2022/07/05 04:33:08;;;;;;;1.40;1.30;;;13.40;99.90;13.50;100938.00;;;;4895235;28;111347;-64
2022/07/05 04:35:34;;;;;;;0.93;0.93;;;13.40;99.90;13.50;100940.00;;;;4895475;28;107235;-63
2022/07/05 04:38:00;;;;;;;3.00;1.53;;;13.50;99.90;13.50;100933.00;;;;4894625;28;121797;-63
2022/07/05 04:40:25;;;;;;;1.40;0.90;;;13.50;99.90;13.60;100935.00;;;;4892977;28;122088;-63
2022/07/05 04:42:51;;;;;;;1.87;1.60;;;13.50;99.90;13.70;100934.00;;;;4893151;28;110519;-64
2022/07/05 04:45:17;;;;;;;1.07;1.07;;;13.60;99.90;13.80;100937.00;;;;4892228;28;93032;-64
2022/07/05 04:47:43;;;;;;;1.57;1.47;;;13.60;99.90;13.90;100947.00;;;;4891077;28;123242;-63
2022/07/05 04:50:09;;;;;;;2.10;1.43;;;13.70;99.90;14.00;100943.00;;;;4890620;28;121789;-64
2022/07/05 04:52:35;;;;;;;1.67;1.57;;;13.90;99.90;14.10;100954.00;;;;4892312;28;92844;-64
2022/07/05 04:55:03;;;;;;;2.60;1.50;;;14.00;99.90;14.30;100959.00;;;;4891965;28;92774;-64
2022/07/05 04:57:40;;;;;;;1.97;1.67;;;14.10;99.90;14.50;100953.00;;;;4891859;28;92888;-63
2022/07/05 05:00:09;;;;;;;3.43;1.97;;;14.30;99.90;14.70;100960.00;;;;4894616;28;93139;-63
2022/07/05 05:02:35;;;;;;;1.10;1.00;;;14.50;99.90;14.90;100956.00;;;;4896218;28;92861;-63
2022/07/05 05:05:01;;;;;;;1.77;1.63;;;14.70;99.90;15.10;100950.00;;;;4895009;28;92783;-63
2022/07/05 05:07:26;;;;;;;1.30;1.17;;;14.90;99.90;15.30;100963.00;;;;4895732;28;108082;-63
2022/07/05 05:09:52;;;;;;;1.47;1.37;;;15.10;99.90;15.50;100960.00;;;;4894417;28;121045;-63
2022/07/05 05:12:18;;;;;;;1.30;1.20;;;15.30;99.90;15.70;100959.00;;;;4894498;28;110887;-63
2022/07/05 05:14:44;;;;;;;1.00;0.90;;;15.50;99.90;16.00;100952.00;;;;4894772;28;93832;-63
2022/07/05 05:17:09;;;;;;;1.30;1.20;;;15.80;99.90;16.20;100960.00;;;;4894559;28;121708;-64
2022/07/05 05:19:35;;;;;;;1.58;1.30;;;16.00;99.90;16.50;100962.00;;;;4893742;28;122098;-64
2022/07/05 05:22:01;;;;;;;1.42;1.30;;;16.30;99.90;16.80;100957.00;;;;4895195;28;110485;-64
2022/07/05 05:24:27;;;;;;;0.90;0.90;;;16.50;99.90;17.10;100966.00;;;;4893972;28;110859;-64
2022/07/05 05:26:52;;;;;;;1.65;1.45;;;16.80;99.90;17.40;100958.00;;;;4895368;28;97693;-64
2022/07/05 05:29:20;;;;;;;3.85;1.00;;;17.10;99.80;17.60;100968.00;;;;4894417;28;123066;-64
2022/07/05 05:31:46;;;;;;;2.20;1.40;;;17.40;99.00;17.90;100973.00;;;;4895450;28;92022;-64
2022/07/05 05:34:12;;;;;;;0.80;0.80;;;17.70;98.30;18.20;100959.00;;;;4894386;28;97903;-64
2022/07/05 05:36:38;;;;;;;1.38;0.93;;;17.90;97.50;18.50;100964.00;;;;4895245;28;94244;-65
2022/07/05 05:39:04;;;;;;;1.02;0.93;;;18.30;96.90;18.80;100971.00;;;;4895069;28;93849;-64
2022/07/05 05:41:29;;;;;;;2.83;1.08;;;18.50;96.10;19.00;100969.00;;;;4895789;28;93504;-64
2022/07/05 05:43:55;;;;;;;1.30;1.00;;;18.80;95.30;19.30;100967.00;;;;4894067;28;98794;-64
2022/07/05 05:46:21;;;;;;;0.90;0.82;;;19.00;94.50;19.50;100970.00;;;;4894368;28;124101;-64
2022/07/05 05:48:46;;;;;;;1.10;1.00;;;19.30;94.00;19.70;100973.00;;;;4892517;28;121341;-64
2022/07/05 05:51:12;;;;;;;4.53;0.93;;;19.50;93.40;20.00;100971.00;;;;4882502;28;110035;-64
2022/07/05 05:53:37;;;;;;;1.42;0.80;;;19.70;92.90;20.20;100967.00;;;;4895316;28;92719;-65
2022/07/05 05:56:03;;;;;;;0.93;0.93;;;20.00;92.40;20.50;100973.00;;;;4876298;28;120818;-65
2022/07/05 05:58:29;;;;;;;1.20;0.77;;;20.30;91.70;20.80;100973.00;;;;4893348;28;108643;-64
2022/07/05 06:00:55;;;;;;;0.68;0.68;;;20.50;91.20;21.00;100983.00;;;;4893920;28;111295;-64
2022/07/05 06:03:26;;;;;;;1.08;0.80;;;20.80;90.70;21.30;100984.00;;;;4894063;28;93987;-65
2022/07/05 06:05:53;;;;;;;0.95;0.80;;;21.00;90.10;21.60;100980.00;;;;4895102;28;94250;-62
2022/07/05 06:08:19;;;;;;;0.93;0.93;;;21.30;88.70;21.80;100980.00;;;;4904318;28;94428;-65
2022/07/05 06:10:45;;;;;;;1.30;1.17;;;21.60;87.50;22.10;100983.00;;;;4894756;28;97032;-62
2022/07/05 06:13:13;;;;;;;3.03;1.10;;;21.80;86.40;22.30;100985.00;;;;4894402;28;95636;-63
2022/07/05 06:15:41;;;;;;;0.80;0.80;;;22.00;84.90;22.50;100985.00;;;;4894748;28;93865;-64
2022/07/05 06:18:09;;;;;;;1.40;1.10;;;22.30;83.90;22.80;100987.00;;;;4894305;28;94047;-64
2022/07/05 06:20:36;;;;;;;0.95;0.95;;;22.50;82.70;23.10;100987.00;;;;4895579;28;91971;-64
2022/07/05 06:23:05;;;;;;;0.68;0.68;;;22.80;81.10;23.30;100991.00;;;;4895092;28;93019;-63
2022/07/05 06:25:32;;;;;;;0.65;0.65;;;23.00;78.90;23.50;100992.00;;;;4902351;28;93292;-63
2022/07/05 06:28:07;;;;;;;0.95;0.68;;;23.20;77.60;23.70;100986.00;;;;4906419;28;94068;-63
2022/07/05 06:30:36;;;;;;;0.40;0.40;;;23.40;76.20;24.00;100996.00;;;;4894498;28;92824;-63
2022/07/05 06:33:02;;;;;;;1.75;0.65;;;23.70;75.20;24.30;101000.00;;;;4894660;28;92849;-63
2022/07/05 06:35:29;;;;;;;0.60;0.60;;;24.00;73.00;24.50;100999.00;;;;4893766;28;94101;-63
2022/07/05 06:38:01;;;;;;;0.63;0.60;;;24.20;71.40;24.80;100999.00;;;;4893775;28;114221;-64
2022/07/05 06:40:28;;;;;;;0.57;0.57;;;24.50;68.80;25.00;100995.00;;;;4894681;28;103942;-64
2022/07/05 06:42:57;;;;;;;0.80;0.70;;;24.70;67.20;25.20;100995.00;;;;4894978;28;92751;-63
2022/07/05 06:45:24;;;;;;;0.65;0.38;;;24.90;64.60;25.30;101003.00;;;;4894330;28;92972;-63
2022/07/05 06:48:07;;;;;;;1.02;0.57;;;25.10;62.70;25.40;100998.00;;;;4894330;28;93010;-64
2022/07/05 06:50:37;;;;;;;3.92;0.73;;;25.20;60.80;25.60;100995.00;;;;4889904;28;104436;-63
2022/07/05 06:53:04;;;;;;;0.55;0.45;;;25.30;59.60;25.80;100995.00;;;;4893981;28;93781;-63
2022/07/05 06:55:30;;;;;;;1.95;0.75;;;25.50;58.70;26.00;101000.00;;;;4893495;28;95023;-64
2022/07/05 06:58:04;;;;;;;1.08;0.60;;;25.70;57.50;26.20;101002.00;;;;4892528;28;114444;-64
2022/07/05 07:00:31;;;;;;;0.82;0.60;;;25.90;56.40;26.40;100999.00;;;;4894728;28;92684;-64
2022/07/05 07:02:56;;;;;;;0.65;0.52;;;26.10;55.80;26.50;100998.00;;;;4894646;28;92996;-64
2022/07/05 07:05:22;;;;;;;0.98;0.60;;;26.20;55.40;26.70;101001.00;;;;4893222;28;106235;-64
2022/07/05 07:10:32;;;;;;;0.50;0.50;;;26.70;53.90;27.20;100999.00;;;;4880457;28;92253;-64
2022/07/05 07:13:00;;;;;;;0.82;0.52;;;26.90;53.10;27.50;101008.00;;;;4894802;28;92862;-65
2022/07/05 07:15:26;;;;;;;0.55;0.55;;;27.20;52.80;27.80;101007.00;;;;4895281;28;94013;-64
2022/07/05 07:17:51;;;;;;;0.30;0.30;;;27.50;51.90;28.10;101012.00;;;;4893125;28;105407;-65
2022/07/05 07:20:17;;;;;;;0.90;0.55;;;27.70;51.10;28.40;101002.00;;;;4893409;28;110351;-65
2022/07/05 07:22:43;;;;;;;1.27;0.38;;;28.00;50.20;28.60;100999.00;;;;4893342;28;109160;-65
2022/07/05 07:25:11;;;;;;;0.50;0.32;;;28.20;48.70;28.80;101007.00;;;;4892876;28;123747;-64
2022/07/05 07:27:49;;;;;;;1.75;0.40;;;28.40;47.60;28.90;101005.00;;;;4893711;28;93721;-63
2022/07/05 07:30:20;;;;;;;0.57;0.50;;;28.60;46.70;29.00;101005.00;;;;4892599;28;93035;-64
2022/07/05 07:32:46;;;;;;;0.30;0.30;;;28.70;45.20;29.00;101001.00;;;;4894152;28;93002;-64
2022/07/05 07:35:13;;;;;;;0.45;0.30;;;28.80;44.20;29.10;101006.00;;;;4893437;28;93332;-64
2022/07/05 07:37:38;;;;;;;1.45;0.55;;;28.90;44.00;29.10;101010.00;;;;4892965;28;113746;-65
2022/07/05 07:40:06;;;;;;;0.93;0.60;;;28.90;42.80;29.10;101003.00;;;;4893400;28;93196;-64
2022/07/05 07:42:32;;;;;;;0.55;0.30;;;28.90;42.50;29.10;101002.00;;;;4893130;28;93628;-65
2022/07/05 07:44:58;;;;;;;0.30;0.25;;;28.90;42.80;29.40;100992.00;;;;4893283;28;92743;-63
2022/07/05 07:47:24;;;;;;;0.50;0.38;;;29.10;42.70;29.60;100994.00;;;;4893294;28;93394;-64
2022/07/05 07:49:50;;;;;;;1.45;0.30;;;29.20;42.60;29.70;100997.00;;;;4892963;28;108692;-63
2022/07/05 07:52:16;;;;;;;0.20;0.20;;;29.40;41.70;29.80;100998.00;;;;4893955;28;93063;-64
2022/07/05 07:54:42;;;;;;;1.15;0.40;;;29.50;41.50;29.90;100993.00;;;;4892364;28;122506;-65
2022/07/05 07:57:08;;;;;;;0.35;0.30;;;29.70;40.80;30.00;100996.00;;;;4893472;28;93013;-65
2022/07/05 07:59:34;;;;;;;0.17;0.10;;;29.70;40.70;30.10;100996.00;;;;4893088;28;111231;-64
2022/07/05 08:02:00;;;;;;;0.65;0.30;;;29.80;40.30;30.30;101001.00;;;;4893208;28;93187;-64
2022/07/05 08:04:26;;;;;;;0.55;0.55;;;30.00;40.30;30.40;100997.00;;;;4893099;28;111555;-65
2022/07/05 08:06:52;;;;;;;0.30;0.22;;;30.10;40.10;30.60;101000.00;;;;4892824;28;93701;-64
2022/07/05 08:09:19;;;;;;;0.40;0.40;;;30.30;39.40;30.50;100998.00;;;;4892674;28;110435;-64
2022/07/05 08:11:46;;;;;;;0.20;0.20;;;30.30;38.70;30.50;100996.00;;;;4892936;28;109050;-64
2022/07/05 08:14:16;;;;;;;0.30;0.13;;;30.30;36.80;30.30;100996.00;;;;4893357;28;93959;-64
2022/07/05 08:16:42;;;;;;;0.43;0.30;;;30.20;36.40;30.00;100993.00;;;;4893010;28;100015;-65
2022/07/05 08:21:52;;;;;;;0.20;0.20;;;29.70;36.70;29.80;100994.00;;;;4876834;28;92802;-64
2022/07/05 08:24:17;;;;;;;0.60;0.50;;;29.60;37.10;29.90;100997.00;;;;4896848;28;93117;-64
2022/07/05 08:26:43;;;;;;;0.20;0.20;;;29.60;37.30;30.10;100994.00;;;;4895714;28;107817;-64
2022/07/05 08:29:12;;;;;;;0.15;0.15;;;29.80;37.50;30.40;100992.00;;;;4897147;28;93034;-64
2022/07/05 08:31:50;;;;;;;0.85;0.40;;;30.00;37.30;30.60;100995.00;;;;4896192;28;96559;-64
2022/07/05 08:34:18;;;;;;;0.82;0.73;;;30.30;37.00;30.80;100996.00;;;;4895291;28;93981;-64
2022/07/05 08:36:45;;;;;;;0.20;0.20;;;30.50;37.00;31.00;100996.00;;;;4896058;28;93283;-64
2022/07/05 08:39:11;;;;;;;0.57;0.40;;;30.80;36.80;31.30;100995.00;;;;4895457;28;104097;-64
2022/07/05 08:41:39;;;;;;;1.00;0.32;;;30.90;36.40;31.60;100999.00;;;;4895946;28;92744;-64
2022/07/05 08:44:07;;;;;;;0.85;0.63;;;31.10;35.30;31.70;100994.00;;;;4896153;28;92778;-64
2022/07/05 08:46:36;;;;;;;0.30;0.30;;;31.30;34.20;31.70;101002.00;;;;4895297;28;109662;-64
2022/07/05 08:49:04;;;;;;;0.55;0.28;;;31.30;34.00;31.60;101003.00;;;;4890922;28;95104;-64
2022/07/05 08:51:34;;;;;;;0.20;0.20;;;31.30;33.90;31.50;101001.00;;;;4886874;28;93038;-64
2022/07/05 08:54:00;;;;;;;0.30;0.30;;;31.20;34.50;31.50;100994.00;;;;4895298;28;111200;-64
2022/07/05 08:56:26;;;;;;;0.40;0.32;;;31.20;34.20;31.30;101003.00;;;;4894785;28;93928;-64
2022/07/05 08:58:51;;;;;;;0.22;0.22;;;31.10;34.00;31.00;101007.00;;;;4894951;28;109789;-65
2022/07/05 09:01:17;;;;;;;0.25;0.25;;;30.90;34.00;30.70;101002.00;;;;4895148;28;109128;-64
2022/07/05 09:03:50;;;;;;;0.15;0.10;;;30.60;34.30;30.70;100987.00;;;;4894830;28;123426;-64
2022/07/05 09:06:22;;;;;;;0.20;0.10;;;30.50;34.40;31.00;100994.00;;;;4895047;28;93927;-63
2022/07/05 09:08:51;;;;;;;0.32;0.20;;;30.60;34.70;31.30;100997.00;;;;4879628;28;92951;-65
2022/07/05 09:11:24;;;;;;;0.20;0.20;;;30.80;34.80;31.60;100989.00;;;;4896169;28;93064;-64
2022/07/05 09:13:50;;;;;;;2.47;0.63;;;31.10;34.60;31.80;100994.00;;;;4896576;28;92438;-64
2022/07/05 09:16:17;;;;;;;0.20;0.20;;;31.30;34.40;32.00;100998.00;;;;4895707;28;93054;-65
2022/07/05 09:18:53;;;;;;;0.32;0.30;;;31.50;34.30;32.00;100996.00;;;;4895226;28;109988;-65
2022/07/05 09:21:27;;;;;;;0.20;0.17;;;31.60;34.10;31.90;101000.00;;;;4895967;28;93963;-65
2022/07/05 09:24:08;;;;;;;0.38;0.30;;;31.60;33.80;31.80;100999.00;;;;4897096;28;94244;-64
2022/07/05 09:26:48;;;;;;;0.63;0.38;;;31.50;33.70;31.80;101002.00;;;;4895356;28;97999;-65
2022/07/05 09:29:19;;;;;;;0.90;0.35;;;31.40;33.40;31.70;100995.00;;;;4895546;28;92960;-64
2022/07/05 09:31:48;;;;;;;0.88;0.30;;;31.40;33.40;31.90;100988.00;;;;4896163;28;93211;-64
2022/07/05 09:34:17;;;;;;;0.40;0.40;;;31.50;33.20;32.00;100986.00;;;;4893153;28;94004;-64
2022/07/05 09:37:01;;;;;;;0.10;0.10;;;31.60;33.10;32.10;100985.00;;;;4895142;28;93975;-64
2022/07/05 09:39:30;;;;;;;2.33;0.47;;;31.70;33.10;32.40;100996.00;;;;4895765;28;91968;-64
2022/07/05 09:42:19;;;;;;;0.20;0.20;;;31.90;32.80;32.50;100990.00;;;;4895677;28;92856;-64
2022/07/05 09:44:53;;;;;;;0.20;0.17;;;32.00;32.00;32.60;100985.00;;;;4895230;28;93728;-64
2022/07/05 09:47:24;;;;;;;1.42;0.20;;;32.20;32.60;32.70;100993.00;;;;4894237;28;93974;-64
2022/07/05 09:49:53;;;;;;;1.27;0.30;;;32.30;32.30;32.60;101003.00;;;;4892038;28;93107;-64
2022/07/05 09:52:56;;;;;;;0.35;0.30;;;32.20;32.40;32.50;101006.00;;;;4894966;28;92877;-65
2022/07/05 09:55:21;;;;;;;2.95;0.28;;;32.20;32.70;32.50;101001.00;;;;4867649;28;93356;-64
2022/07/05 09:57:47;;;;;;;0.20;0.20;;;32.10;32.60;32.40;100999.00;;;;4875959;28;122201;-64
2022/07/05 10:00:19;;;;;;;0.30;0.30;;;32.00;32.60;32.40;100994.00;;;;4895392;28;92743;-64
2022/07/05 10:02:58;;;;;;;1.45;0.50;;;32.00;32.20;32.30;100993.00;;;;4876675;28;93025;-64
2022/07/05 10:05:27;;;;;;;0.38;0.38;;;31.90;31.30;32.20;100991.00;;;;4894957;28;93020;-64
2022/07/05 10:08:01;;;;;;;0.30;0.30;;;31.80;31.80;32.40;101001.00;;;;4895644;28;93498;-64
2022/07/05 10:10:30;;;;;;;0.30;0.30;;;31.80;32.40;32.60;100996.00;;;;4876984;28;92711;-64
2022/07/05 10:13:00;;;;;;;0.85;0.63;;;32.00;32.30;32.80;101002.00;;;;4894951;28;94148;-64
2022/07/05 10:15:31;;;;;;;0.20;0.20;;;32.20;31.80;32.90;100999.00;;;;4894912;28;93918;-65
2022/07/05 10:18:14;;;;;;;0.45;0.30;;;32.40;31.60;33.20;100999.00;;;;4894184;28;110673;-65
2022/07/05 10:20:43;;;;;;;0.32;0.20;;;32.50;31.50;33.50;100992.00;;;;4894681;28;92786;-64
2022/07/05 10:23:13;;;;;;;1.75;0.13;;;32.70;31.50;33.70;100993.00;;;;4895200;28;92896;-64
2022/07/05 10:25:42;;;;;;;0.82;0.38;;;33.00;31.40;34.10;100994.00;;;;4876586;28;93236;-64
2022/07/05 10:28:09;;;;;;;1.75;0.30;;;33.40;31.60;34.40;101005.00;;;;4895006;28;93268;-64
2022/07/05 10:30:35;;;;;;;0.13;0.13;;;33.70;31.10;34.50;101006.00;;;;4894654;28;103102;-64
2022/07/05 10:33:07;;;;;;;0.40;0.30;;;33.80;30.90;34.40;101007.00;;;;4894697;28;92802;-64
2022/07/05 10:35:34;;;;;;;2.00;0.40;;;33.80;30.60;34.10;101015.00;;;;4894003;28;93665;-64
2022/07/05 10:38:02;;;;;;;0.20;0.20;;;33.60;30.60;33.70;101021.00;;;;4893820;28;93948;-65
2022/07/05 10:40:31;;;;;;;0.93;0.63;;;33.30;30.90;33.40;101015.00;;;;4877271;28;93591;-65
2022/07/05 10:43:02;;;;;;;1.95;0.77;;;33.00;31.10;33.10;101004.00;;;;4876497;28;93048;-65
2022/07/05 10:45:34;;;;;;;0.57;0.30;;;32.70;31.50;33.20;101007.00;;;;4875832;28;92845;-65
2022/07/05 10:48:38;;;;;;;0.25;0.25;;;32.70;31.80;33.60;101006.00;;;;4894140;28;94005;-65
2022/07/05 10:51:15;;;;;;;0.80;0.40;;;32.90;31.30;34.00;101008.00;;;;4813020;29;101380;-65
2022/07/05 10:53:41;;;;;;;0.88;0.40;;;33.10;31.30;34.20;101001.00;;;;4815212;29;93232;-64
2022/07/05 10:56:06;;;;;;;0.68;0.25;;;33.40;30.60;34.10;101003.00;;;;4857159;28;93159;-64